Time;durP1;ratioP1;P1;durP2;ratioP2;P2;SDS_P1;SDS_P2;PMS_P1;PMS_P2;Temp;Humidity;BMP_temperature;BMP_pressure;BME280_temperature;BME280_humidity;BME280_pressure;Samples;Min_cycle;Max_cycle;Signal;HPM_P1;HPM_P2
2023/08/06 00:28:51;;;;;;;11.00;9.40;;;;;;;18.81;92.76;95745.81;105346;1264;98759;-79
2023/08/06 00:31:58;;;;;;;10.10;8.90;;;;;;;18.71;92.62;95670.84;106581;1248;96773;-80
2023/08/06 00:35:05;;;;;;;9.80;8.70;;;;;;;18.62;92.88;95633.09;106615;1248;96163;-83
2023/08/06 00:38:12;;;;;;;10.40;8.80;;;;;;;18.58;92.68;95680.83;105824;1269;99809;-79
2023/08/06 00:41:18;;;;;;;11.90;9.50;;;;;;;18.55;92.87;95750.80;105220;1263;100560;-80
2023/08/06 00:44:25;;;;;;;10.30;9.40;;;;;;;18.53;93.13;95776.95;105149;1276;99953;-79
2023/08/06 00:47:32;;;;;;;12.60;9.80;;;;;;;18.50;93.04;95789.41;104530;1270;96291;-81
2023/08/06 00:50:39;;;;;;;11.40;10.20;;;;;;;18.49;93.27;95785.39;104302;1275;96870;-81
2023/08/06 01:28:39;;;;;;;11.70;8.20;;;;;;;18.64;92.05;95717.70;105764;1264;96795;-80
2023/08/06 01:31:52;;;;;;;8.90;8.00;;;;;;;18.57;92.12;95707.44;106144;1266;98822;-81
2023/08/06 01:34:49;;;;;;;8.70;7.70;;;;;;;18.49;92.08;95700.43;105952;1264;97059;-83
2023/08/06 01:37:42;;;;;;;8.90;7.30;;;;;;;18.42;91.98;95696.36;105350;1264;96804;-80
2023/08/06 01:40:52;;;;;;;7.90;7.20;;;;;;;18.36;92.01;95686.90;104819;1270;99308;-81
2023/08/06 02:35:45;;;;;;;9.20;7.50;;;;;;;17.74;91.69;95637.64;105435;1262;98473;-79
2023/08/06 02:38:52;;;;;;;8.60;7.70;;;;;;;17.67;91.87;95628.63;106174;1254;96013;-79
2023/08/06 02:41:58;;;;;;;9.50;8.10;;;;;;;17.64;92.19;95622.23;105066;1267;97688;-81
2023/08/06 02:45:05;;;;;;;8.60;7.70;;;;;;;17.59;92.25;95625.64;104492;1274;100888;-80
2023/08/06 03:25:19;;;;;;;13.90;7.80;;;;;;;17.58;92.01;95582.71;105538;1260;97237;-79
2023/08/06 03:28:26;;;;;;;9.20;8.30;;;;;;;17.55;92.21;95575.61;107017;1247;95882;-79
2023/08/06 03:31:42;;;;;;;12.90;9.10;;;;;;;17.55;92.46;95573.42;105821;1254;98358;-79
2023/08/06 03:34:48;;;;;;;15.10;10.20;;;;;;;17.56;92.70;95567.89;105398;1270;101423;-79
2023/08/06 03:41:47;;;;;;;10.50;9.40;;;;;;;17.55;92.04;95562.02;101071;1311;639479;-82
2023/08/06 03:44:55;;;;;;;13.40;9.40;;;;;;;17.46;92.29;95561.42;102708;1284;95961;-81
2023/08/06 03:48:04;;;;;;;12.60;9.50;;;;;;;17.46;92.75;95560.83;102185;1292;96957;-82
2023/08/06 03:51:07;;;;;;;12.40;8.70;;;;;;;17.49;92.76;95563.95;101617;1307;99547;-79
2023/08/06 04:23:32;;;;;;;13.80;11.90;;;;;;;18.09;92.38;95554.31;101267;1264;5399098;-77
2023/08/06 04:26:39;;;;;;;16.30;11.00;;;;;;;18.08;92.65;95555.01;106849;1248;96774;-78
2023/08/06 04:29:44;;;;;;;11.10;10.00;;;;;;;18.07;92.90;95539.73;105926;1267;98331;-81
2023/08/06 04:32:51;;;;;;;14.00;11.20;;;;;;;18.07;92.99;95526.35;105382;1264;100295;-81
2023/08/06 04:35:41;;;;;;;15.70;10.80;;;;;;;18.06;93.04;95524.91;104792;1276;100389;-83
2023/08/06 04:38:44;;;;;;;14.30;11.20;;;;;;;18.02;93.16;95523.13;104448;1273;95903;-82
2023/08/06 04:41:52;;;;;;;13.30;11.90;;;;;;;17.99;93.36;95521.56;104421;1270;96825;-82
2023/08/06 05:05:33;;;;;;;17.00;11.40;;;;;;;18.65;92.73;95504.35;101729;1291;654248;-82
2023/08/06 05:08:40;;;;;;;14.10;11.50;;;;;;;18.70;92.88;95496.54;99615;1281;5335336;-83
2023/08/06 05:11:47;;;;;;;13.20;11.60;;;;;;;18.70;93.20;95495.64;104027;1283;98593;-84
2023/08/06 05:54:59;;;;;;;11.60;9.20;;;;;;;18.89;92.72;95435.13;105515;1262;94279;-80
2023/08/06 05:58:06;;;;;;;12.20;10.80;;;;;;;18.84;92.51;95432.19;106367;1254;96133;-80
2023/08/06 06:01:13;;;;;;;11.90;10.60;;;;;;;18.82;92.83;95425.48;105727;1261;98636;-79
2023/08/06 06:04:20;;;;;;;12.30;11.10;;;;;;;18.83;92.83;95420.59;105247;1275;101217;-77
2023/08/06 06:07:17;;;;;;;11.80;10.60;;;;;;;18.81;92.74;95413.77;104303;1285;98991;-78
2023/08/06 06:44:47;;;;;;;12.50;10.40;;;;;;;19.10;92.35;95430.77;105623;1261;97947;-78
2023/08/06 06:47:54;;;;;;;12.40;11.20;;;;;;;19.03;92.59;95431.50;105658;1261;101022;-81
2023/08/06 06:51:01;;;;;;;11.20;10.10;;;;;;;19.00;92.70;95429.98;105015;1267;100243;-82
2023/08/06 07:37:08;;;;;;;7.60;5.70;;;;;;;19.11;94.14;95405.65;105295;1268;97034;-80
2023/08/06 07:40:07;;;;;;;5.00;4.60;;;;;;;19.09;94.14;95407.93;105851;1255;97336;-82
2023/08/06 07:43:15;;;;;;;7.30;4.70;;;;;;;19.08;94.08;95407.35;105201;1276;99845;-81
2023/08/06 07:46:15;;;;;;;4.70;4.20;;;;;;;19.10;94.16;95404.36;104180;1277;101893;-84
2023/08/06 07:49:22;;;;;;;5.10;4.60;;;;;;;19.13;94.21;95403.04;103713;1287;98251;-81
2023/08/06 08:12:42;;;;;;;4.20;3.80;;;;;;;19.56;93.23;95424.40;104809;1264;642633;-81
2023/08/06 08:15:42;;;;;;;3.50;3.20;;;;;;;19.67;92.80;95421.75;102492;1252;5401810;-82
2023/08/06 08:18:49;;;;;;;4.10;3.50;;;;;;;19.63;93.36;95412.95;106660;1263;96713;-82
2023/08/06 08:21:56;;;;;;;3.20;2.90;;;;;;;19.63;93.44;95394.39;105382;1265;99224;-81
2023/08/06 08:25:03;;;;;;;3.30;2.90;;;;;;;19.61;93.27;95389.52;104838;1269;100282;-82
2023/08/06 08:28:10;;;;;;;3.00;2.80;;;;;;;19.54;93.27;95390.98;104244;1275;99810;-82
2023/08/06 08:31:07;;;;;;;3.00;2.80;;;;;;;19.46;93.38;95389.39;104003;1275;95922;-78
2023/08/06 09:14:28;;;;;;;3.80;3.30;;;;;;;19.69;93.05;95372.47;105269;1268;95980;-80
2023/08/06 09:17:35;;;;;;;4.10;3.70;;;;;;;19.69;93.20;95375.42;105858;1257;97017;-82
2023/08/06 09:20:42;;;;;;;3.70;3.40;;;;;;;19.69;93.20;95374.56;104727;1277;97809;-80
2023/08/06 09:23:49;;;;;;;4.00;3.70;;;;;;;19.69;93.32;95374.83;104342;1275;100605;-81
2023/08/06 09:39:55;;;;;;;3.80;3.40;;;;;;;19.74;93.59;95368.66;101366;1294;635930;-83
2023/08/06 09:43:03;;;;;;;3.70;3.40;;;;;;;19.70;93.70;95367.68;103552;1278;95889;-81
2023/08/06 09:46:01;;;;;;;3.90;3.50;;;;;;;19.69;93.56;95361.84;103070;1281;96132;-83
2023/08/06 09:49:10;;;;;;;4.00;3.70;;;;;;;19.69;93.74;95360.69;102543;1281;98713;-82
2023/08/06 10:08:14;;;;;;;3.90;3.30;;;;;;;19.60;93.16;95365.56;101563;1295;636157;-79
2023/08/06 10:11:22;;;;;;;3.40;3.10;;;;;;;19.56;93.16;95368.27;103001;1292;97090;-77
2023/08/06 10:14:41;;;;;;;3.20;2.90;;;;;;;19.57;93.32;95367.36;102556;1287;95904;-77
2023/08/06 11:17:05;;;;;;;0.90;0.60;;;;;;;20.61;90.44;95342.55;105375;1279;95927;-82
2023/08/06 11:20:11;;;;;;;0.60;0.40;;;;;;;20.51;89.31;95343.35;106358;1261;100094;-83
2023/08/06 11:23:18;;;;;;;0.50;0.50;;;;;;;20.35;88.50;95348.73;104741;1278;96383;-78
2023/08/06 11:26:08;;;;;;;1.60;0.50;;;;;;;20.21;87.90;95353.69;104459;1273;97191;-78
2023/08/06 11:29:14;;;;;;;0.80;0.50;;;;;;;20.03;87.62;95355.55;104458;1274;99795;-77
2023/08/06 12:01:08;;;;;;;0.50;0.20;;;;;;;18.71;83.68;95390.27;105277;1268;98151;-80
2023/08/06 12:04:21;;;;;;;0.80;0.30;;;;;;;18.29;83.47;95389.60;106636;1251;101233;-85
2023/08/06 12:07:28;;;;;;;0.60;0.10;;;;;;;17.98;83.96;95391.84;105840;1257;99800;-88
2023/08/06 12:10:35;;;;;;;0.50;0.50;;;;;;;17.89;84.31;95392.59;105571;1263;96251;-83
2023/08/06 12:13:32;;;;;;;0.30;0.20;;;;;;;17.83;84.29;95394.65;105678;1260;96043;-82
2023/08/06 12:16:20;;;;;;;0.20;0.20;;;;;;;17.74;84.17;95407.88;104750;1260;99753;-80
2023/08/06 12:19:10;;;;;;;0.90;0.20;;;;;;;17.62;83.78;95425.73;105134;1261;100277;-79
2023/08/06 12:22:16;;;;;;;0.20;0.20;;;;;;;17.49;83.76;95438.63;105145;1266;98850;-78
2023/08/06 12:25:24;;;;;;;0.40;0.30;;;;;;;17.37;83.95;95445.63;104619;1273;96793;-79
2023/08/06 12:48:40;;;;;;;1.80;0.30;;;;;;;17.15;83.91;95513.09;102637;1289;640640;-79
2023/08/06 12:51:48;;;;;;;1.60;0.50;;;;;;;17.04;83.61;95538.89;100331;1263;5343387;-78
2023/08/06 12:55:00;;;;;;;0.30;0.30;;;;;;;16.89;83.95;95541.16;103214;1285;98232;-78
2023/08/06 13:27:45;;;;;;;1.00;0.50;;;;;;;16.44;84.69;95596.94;105371;1266;96794;-79
2023/08/06 13:30:45;;;;;;;0.40;0.30;;;;;;;16.36;84.76;95602.28;106272;1261;97994;-79
2023/08/06 13:33:51;;;;;;;0.90;0.40;;;;;;;16.29;84.90;95601.67;105380;1264;100359;-81
2023/08/06 13:36:58;;;;;;;2.10;0.30;;;;;;;16.21;85.10;95584.97;104653;1273;98748;-81
2023/08/06 14:06:32;;;;;;;1.40;0.70;;;;;;;16.66;85.15;95613.72;105171;1264;640721;-77
2023/08/06 14:09:22;;;;;;;0.80;0.60;;;;;;;16.80;84.97;95623.85;102924;1247;5395828;-82
2023/08/06 14:12:22;;;;;;;1.20;0.50;;;;;;;16.76;85.13;95633.34;106875;1249;95918;-79
2023/08/06 14:15:29;;;;;;;1.30;0.90;;;;;;;16.70;85.27;95630.96;106965;1241;98252;-80
2023/08/06 14:18:38;;;;;;;1.00;0.70;;;;;;;16.63;85.44;95627.30;106527;1254;100449;-77
2023/08/06 14:21:45;;;;;;;1.10;0.70;;;;;;;16.57;85.42;95634.11;105471;1263;100332;-79
2023/08/06 14:24:51;;;;;;;2.40;1.60;;;;;;;16.52;85.86;95639.77;105308;1263;96285;-76
2023/08/06 14:27:58;;;;;;;3.70;2.60;;;;;;;16.48;85.87;95637.74;104793;1268;95961;-77
2023/08/06 14:31:05;;;;;;;3.40;1.20;;;;;;;16.49;86.34;95637.14;104478;1273;99528;-77
2023/08/06 14:54:55;;;;;;;6.40;2.90;;;;;;;16.71;85.54;95666.79;104857;1268;641666;-81
2023/08/06 14:57:42;;;;;;;2.80;1.90;;;;;;;16.77;85.65;95685.04;101748;1264;5403210;-82
2023/08/06 15:00:49;;;;;;;3.00;0.90;;;;;;;16.74;85.93;95688.08;105956;1257;95957;-79
2023/08/06 15:03:56;;;;;;;1.00;0.40;;;;;;;16.66;85.97;95694.16;104826;1276;105940;-80
2023/08/06 15:07:03;;;;;;;0.80;0.50;;;;;;;16.63;86.24;95701.12;104371;1271;101485;-81
2023/08/06 15:29:00;;;;;;;2.30;1.20;;;;;;;16.33;85.08;95720.80;101403;1295;638457;-80
2023/08/06 15:32:09;;;;;;;4.00;0.70;;;;;;;16.26;85.12;95728.35;103023;1284;97104;-79
2023/08/06 15:54:29;;;;;;;1.10;0.80;;;;;;;15.99;85.36;95775.35;101365;1297;637059;-81
2023/08/06 15:57:37;;;;;;;0.80;0.50;;;;;;;15.95;85.47;95780.11;103399;1275;95925;-76
2023/08/06 16:00:46;;;;;;;2.80;0.80;;;;;;;15.93;85.28;95785.74;102056;1300;96079;-77
2023/08/06 16:30:18;;;;;;;1.30;0.50;;;;;;;16.21;84.54;95808.96;101659;1293;643900;-79
2023/08/06 16:33:26;;;;;;;0.50;0.30;;;;;;;16.29;84.04;95817.83;99378;1278;5339932;-82
2023/08/06 16:36:34;;;;;;;0.40;0.40;;;;;;;16.21;84.06;95824.70;102428;1290;98255;-81
2023/08/06 16:39:42;;;;;;;0.50;0.50;;;;;;;16.13;84.28;95822.65;101743;1299;100507;-81
2023/08/06 17:36:37;;;;;;;3.40;1.30;;;;;;;15.50;84.80;95865.84;105293;1264;95656;-80
2023/08/06 17:39:14;;;;;;;2.30;1.30;;;;;;;15.47;84.79;95864.72;106548;1263;99721;-79
2023/08/06 17:42:14;;;;;;;1.50;1.20;;;;;;;15.46;84.96;95868.20;106912;1249;99940;-79
2023/08/06 17:45:22;;;;;;;1.90;1.10;;;;;;;15.43;85.31;95871.38;106419;1262;99889;-78
2023/08/06 17:48:15;;;;;;;1.60;0.90;;;;;;;15.42;85.25;95869.48;105394;1270;96007;-81
2023/08/06 17:51:22;;;;;;;1.40;0.90;;;;;;;15.41;85.12;95869.92;105038;1267;96165;-81
2023/08/06 17:54:29;;;;;;;1.10;0.70;;;;;;;15.39;85.15;95876.23;104563;1281;100072;-82
2023/08/06 17:57:35;;;;;;;1.60;0.90;;;;;;;15.39;85.28;95883.52;103616;1279;101350;-81
2023/08/06 18:23:37;;;;;;;2.10;1.10;;;;;;;15.53;84.31;95871.34;102446;1293;640062;-77
2023/08/06 18:26:46;;;;;;;1.20;0.90;;;;;;;15.61;83.99;95874.09;99098;1277;5378826;-78
2023/08/06 18:29:54;;;;;;;0.90;0.90;;;;;;;15.55;84.05;95870.48;102200;1291;96016;-77
2023/08/06 18:33:03;;;;;;;2.40;0.80;;;;;;;15.45;84.18;95870.55;101892;1294;108168;-77
2023/08/06 18:36:05;;;;;;;0.90;0.60;;;;;;;15.37;84.18;95879.12;101311;1300;101997;-78
2023/08/06 20:45:36;;;;;;;1.30;0.70;;;;;;;14.11;87.66;95912.00;105290;1276;96241;-82
2023/08/06 20:48:03;;;;;;;0.90;0.70;;;;;;;14.12;87.66;95906.09;106976;1250;95929;-82
2023/08/06 20:50:30;;;;;;;1.50;0.90;;;;;;;14.14;87.85;95903.41;106816;1251;95812;-81
2023/08/06 20:52:56;;;;;;;2.60;0.90;;;;;;;14.12;87.85;95900.88;106788;1248;96425;-83
2023/08/06 20:55:26;;;;;;;3.30;1.70;;;;;;;14.07;87.94;95898.31;106858;1251;95965;-81
2023/08/06 20:57:53;;;;;;;4.00;1.50;;;;;;;14.08;88.16;95895.49;106908;1248;96782;-82
2023/08/06 21:00:20;;;;;;;2.40;1.70;;;;;;;14.10;88.37;95887.52;106856;1250;96127;-81
2023/08/06 21:02:46;;;;;;;2.80;1.50;;;;;;;14.12;88.56;95887.47;107443;1244;95843;-81
2023/08/06 21:05:13;;;;;;;4.90;1.50;;;;;;;14.10;88.55;95886.21;107288;1245;96165;-82
2023/08/06 21:07:39;;;;;;;2.10;1.50;;;;;;;14.07;88.54;95883.98;107245;1245;96949;-81
2023/08/06 21:10:06;;;;;;;2.90;2.10;;;;;;;14.06;88.83;95885.45;107185;1254;101675;-81
2023/08/06 21:12:32;;;;;;;4.10;1.60;;;;;;;14.07;88.63;95886.97;107201;1246;96005;-81
2023/08/06 21:14:59;;;;;;;3.70;1.40;;;;;;;14.06;88.58;95888.88;107175;1248;96771;-82
2023/08/06 21:17:25;;;;;;;6.10;1.90;;;;;;;14.08;88.52;95888.23;107204;1242;96072;-81
2023/08/06 21:19:51;;;;;;;1.90;1.40;;;;;;;14.09;88.55;95889.25;107126;1247;101642;-81
2023/08/06 21:22:18;;;;;;;2.50;0.60;;;;;;;14.08;88.37;95888.17;107161;1247;96834;-79
2023/08/06 21:24:44;;;;;;;0.60;0.60;;;;;;;14.04;88.02;95889.24;107117;1254;96012;-81
2023/08/06 21:27:10;;;;;;;0.40;0.40;;;;;;;14.05;88.07;95890.17;107179;1248;96004;-81
2023/08/06 21:29:36;;;;;;;1.80;0.70;;;;;;;14.05;87.88;95891.36;107067;1254;101487;-81
2023/08/06 21:32:03;;;;;;;1.40;0.70;;;;;;;14.08;87.98;95896.63;107130;1254;96185;-81
2023/08/06 21:34:29;;;;;;;1.70;0.80;;;;;;;14.04;87.96;95892.65;107252;1239;95951;-81
2023/08/06 21:36:56;;;;;;;1.70;0.60;;;;;;;14.04;87.87;95900.64;107484;1245;96033;-80
2023/08/06 21:39:22;;;;;;;0.70;0.60;;;;;;;14.03;87.55;95898.24;107678;1245;99757;-81
2023/08/06 21:41:48;;;;;;;0.40;0.40;;;;;;;14.03;87.41;95904.21;107771;1239;96540;-80
2023/08/06 21:44:15;;;;;;;1.30;0.50;;;;;;;14.03;87.37;95901.98;107807;1239;95868;-85
2023/08/06 21:46:41;;;;;;;0.30;0.30;;;;;;;14.04;87.22;95906.70;107776;1241;95895;-83
2023/08/06 21:49:07;;;;;;;1.10;0.50;;;;;;;14.05;87.16;95911.55;107764;1239;99256;-83
2023/08/06 21:51:33;;;;;;;0.70;0.60;;;;;;;14.08;87.32;95918.40;107822;1236;95930;-81
2023/08/06 21:54:00;;;;;;;0.40;0.40;;;;;;;14.11;87.28;95919.00;107802;1238;96785;-83
2023/08/06 21:56:26;;;;;;;0.40;0.40;;;;;;;14.14;87.18;95918.66;111296;1236;93588;-83
2023/08/06 21:58:52;;;;;;;1.10;0.50;;;;;;;14.17;87.06;95924.15;111262;1239;100867;-83
2023/08/06 22:01:19;;;;;;;0.60;0.40;;;;;;;14.19;87.15;95926.33;111252;1236;93479;-82
2023/08/06 22:03:46;;;;;;;2.10;0.50;;;;;;;14.21;86.88;95928.29;111221;1239;93471;-83
2023/08/06 22:06:13;;;;;;;0.60;0.50;;;;;;;14.24;86.83;95933.40;111315;1235;94061;-83
2023/08/06 22:08:40;;;;;;;0.60;0.60;;;;;;;14.25;87.25;95935.57;111122;1235;109576;-82
2023/08/06 22:11:07;;;;;;;0.50;0.50;;;;;;;14.24;87.36;95937.15;111245;1236;100214;-83
2023/08/06 22:13:35;;;;;;;0.90;0.50;;;;;;;14.23;87.33;95936.60;111254;1236;93541;-83
2023/08/06 22:16:02;;;;;;;1.70;0.60;;;;;;;14.25;87.47;95936.71;111251;1239;93474;-83
2023/08/06 22:18:28;;;;;;;0.50;0.50;;;;;;;14.25;87.56;95940.94;111297;1236;93416;-83
2023/08/06 22:20:56;;;;;;;1.90;0.50;;;;;;;14.25;87.72;95941.38;111304;1236;93487;-82
2023/08/06 22:23:23;;;;;;;1.20;0.40;;;;;;;14.24;87.59;95940.79;111266;1235;93546;-83
2023/08/06 22:25:51;;;;;;;1.20;0.60;;;;;;;14.24;87.75;95942.96;111209;1239;93493;-83
2023/08/06 22:28:20;;;;;;;0.70;0.70;;;;;;;14.22;87.77;95943.87;110748;1239;94035;-83
2023/08/06 22:30:46;;;;;;;1.10;0.60;;;;;;;14.19;87.78;95950.80;110845;1239;93502;-83
2023/08/06 22:33:13;;;;;;;0.70;0.70;;;;;;;14.18;87.94;95956.72;110811;1239;93484;-83
2023/08/06 22:35:39;;;;;;;1.90;0.70;;;;;;;14.18;88.10;95956.06;110784;1239;94002;-83
2023/08/06 22:38:05;;;;;;;0.60;0.60;;;;;;;14.15;87.89;95959.42;110798;1239;93833;-84
2023/08/06 22:40:31;;;;;;;0.80;0.80;;;;;;;14.11;87.76;95952.16;110782;1239;93475;-83
2023/08/06 22:42:58;;;;;;;2.50;0.60;;;;;;;14.08;88.20;95959.69;110810;1239;93595;-83
2023/08/06 22:45:24;;;;;;;0.70;0.70;;;;;;;14.10;88.57;95959.75;110846;1239;93645;-83
2023/08/06 22:47:50;;;;;;;0.60;0.50;;;;;;;14.09;88.53;95962.19;110851;1239;93732;-82
2023/08/06 22:50:17;;;;;;;3.10;0.50;;;;;;;14.09;88.48;95966.31;110787;1239;93712;-83
2023/08/06 22:52:43;;;;;;;2.90;0.80;;;;;;;14.10;88.68;95970.71;110777;1239;93571;-82
2023/08/06 22:55:09;;;;;;;0.80;0.80;;;;;;;14.11;88.82;95975.65;110793;1239;93849;-82
2023/08/06 22:57:35;;;;;;;3.00;1.10;;;;;;;14.13;88.71;95978.52;110815;1242;93814;-83
2023/08/06 23:00:03;;;;;;;2.30;1.20;;;;;;;14.14;88.81;95979.38;111117;1236;93447;-83
2023/08/06 23:02:30;;;;;;;3.40;1.30;;;;;;;14.16;88.79;95983.09;111255;1236;99455;-83
2023/08/06 23:04:56;;;;;;;3.40;1.80;;;;;;;14.17;88.89;95987.42;111267;1236;93644;-83
2023/08/06 23:07:23;;;;;;;2.30;1.60;;;;;;;14.18;88.85;95988.36;111245;1236;93537;-83
2023/08/06 23:09:49;;;;;;;2.80;1.50;;;;;;;14.19;88.89;95989.08;111258;1236;93834;-83
2023/08/06 23:12:16;;;;;;;2.90;1.50;;;;;;;14.18;89.05;95987.92;111248;1236;100614;-83
2023/08/06 23:14:42;;;;;;;2.20;1.40;;;;;;;14.17;89.07;95988.14;111246;1239;93626;-83
2023/08/06 23:17:08;;;;;;;1.70;1.50;;;;;;;14.16;88.97;95985.96;111229;1235;93821;-83
2023/08/06 23:19:34;;;;;;;2.50;1.40;;;;;;;14.12;89.19;95987.65;111290;1235;93792;-82
2023/08/06 23:22:01;;;;;;;2.50;1.60;;;;;;;14.11;89.26;95984.61;111280;1236;102422;-83
2023/08/06 23:24:27;;;;;;;3.80;1.40;;;;;;;14.11;89.37;95982.43;111234;1236;94131;-83
2023/08/06 23:26:54;;;;;;;2.00;1.60;;;;;;;14.12;89.53;95979.95;111224;1239;94144;-83
2023/08/06 23:29:20;;;;;;;4.10;2.00;;;;;;;14.14;89.48;95980.91;111343;1235;94143;-83
2023/08/06 23:31:47;;;;;;;9.70;1.60;;;;;;;14.17;89.46;95978.30;111284;1236;109679;-82
2023/08/06 23:34:13;;;;;;;1.40;1.30;;;;;;;14.19;89.33;95972.23;111208;1236;94124;-82
2023/08/06 23:36:39;;;;;;;1.90;1.40;;;;;;;14.20;89.44;95967.36;111215;1235;94206;-83
2023/08/06 23:39:11;;;;;;;1.60;1.20;;;;;;;14.22;89.24;95968.02;111296;1236;94165;-82
2023/08/06 23:41:38;;;;;;;3.30;1.20;;;;;;;14.20;89.26;95969.38;111329;1235;101195;-82
2023/08/06 23:44:05;;;;;;;2.70;1.30;;;;;;;14.19;89.39;95968.77;111293;1237;101321;-82
2023/08/06 23:46:31;;;;;;;1.20;1.10;;;;;;;14.18;89.16;95967.73;111227;1235;94147;-82
2023/08/06 23:48:57;;;;;;;3.80;1.40;;;;;;;14.18;89.21;95969.52;111240;1235;94109;-82
2023/08/06 23:51:23;;;;;;;2.70;1.20;;;;;;;14.13;88.99;95967.89;111333;1236;94147;-83
2023/08/06 23:53:50;;;;;;;1.00;1.00;;;;;;;14.08;89.24;95964.40;111241;1235;101412;-82
2023/08/06 23:56:16;;;;;;;4.40;1.30;;;;;;;14.06;89.19;95965.22;111226;1235;94143;-82
2023/08/06 23:58:42;;;;;;;1.80;1.40;;;;;;;14.06;89.03;95965.88;111180;1235;94092;-83
